Terminal Aerodrome Forecast
Issued by NWS Denver/Boulder, CO

Home | Current Version | Previous Version | Text Only | Print | Product List | Glossary On
Versions: 1 2 3 4 5 6 7 8 9 10 11 12 13 14 15 16 17 18 19 20 21 22 23 24 25 26 27 28 29 30 31 32 33 34 35 36 37 38 39 40 41 42 43 44 45 46 47 48 49 50
000
FTUS45 KBOU 061749
TAFDEN
TAF
KDEN 061749Z 0618/0724 30006KT P6SM FEW015 BKN060 BKN120
     FM062100 33010KT P6SM SCT035 OVC060
      TEMPO 0622/0702 VRB15G25KT 4SM SHRA BKN030
     FM070200 01010KT P6SM SCT015 OVC030
     FM070600 04006KT P6SM SCT006 OVC012
     FM071000 VRB04KT 1SM BR OVC004
     FM071500 13006KT 4SM BR OVC012
     FM071800 07008KT P6SM SCT025 BKN060 PROB30 0721/0724 VRB15G25KT
      -SHRA BKN025=

USA.gov is the U.S. government's official web portal to all federal, state and local government web resources and services.